sensor_id;sensor_type;location;lat;lon;timestamp;pressure;altitude;pressure_sealevel;temperature;humidity
35892;BME280;21993;42.672;23.296;2022-11-21T00:00:21;93450.63;;;12.71;82.50
35892;BME280;21993;42.672;23.296;2022-11-21T00:02:47;93449.72;;;12.79;82.27
35892;BME280;21993;42.672;23.296;2022-11-21T00:05:13;93446.63;;;12.75;81.62
35892;BME280;21993;42.672;23.296;2022-11-21T00:07:38;93435.06;;;12.76;81.84
35892;BME280;21993;42.672;23.296;2022-11-21T00:10:04;93427.38;;;12.75;81.81
35892;BME280;21993;42.672;23.296;2022-11-21T00:12:29;93399.69;;;12.79;81.78
35892;BME280;21993;42.672;23.296;2022-11-21T00:14:55;93418.75;;;12.81;81.36
35892;BME280;21993;42.672;23.296;2022-11-21T00:17:20;93409.31;;;12.72;82.01
35892;BME280;21993;42.672;23.296;2022-11-21T00:19:45;93399.31;;;12.67;82.43
35892;BME280;21993;42.672;23.296;2022-11-21T00:22:11;93416.91;;;12.66;82.25
35892;BME280;21993;42.672;23.296;2022-11-21T00:24:36;93411.31;;;12.70;82.29
35892;BME280;21993;42.672;23.296;2022-11-21T00:27:02;93386.13;;;12.67;82.32
35892;BME280;21993;42.672;23.296;2022-11-21T00:29:27;93384.97;;;12.70;82.54
35892;BME280;21993;42.672;23.296;2022-11-21T00:31:53;93386.13;;;12.67;82.32
35892;BME280;21993;42.672;23.296;2022-11-21T00:34:19;93386.63;;;12.71;82.48
35892;BME280;21993;42.672;23.296;2022-11-21T00:36:44;93405.66;;;12.73;82.64
35892;BME280;21993;42.672;23.296;2022-11-21T00:39:09;93369.72;;;12.80;82.53
35892;BME280;21993;42.672;23.296;2022-11-21T00:41:35;93371.69;;;12.78;82.89
35892;BME280;21993;42.672;23.296;2022-11-21T00:44:00;93372.25;;;12.73;83.14
35892;BME280;21993;42.672;23.296;2022-11-21T00:46:26;93381.88;;;12.81;83.29
35892;BME280;21993;42.672;23.296;2022-11-21T00:48:51;93392.22;;;12.82;82.97
35892;BME280;21993;42.672;23.296;2022-11-21T00:51:16;93375.53;;;12.90;82.81
35892;BME280;21993;42.672;23.296;2022-11-21T00:53:42;93346.94;;;12.87;82.04
35892;BME280;21993;42.672;23.296;2022-11-21T00:56:07;93340.38;;;12.83;82.15
35892;BME280;21993;42.672;23.296;2022-11-21T00:58:33;93354.91;;;12.79;82.99
35892;BME280;21993;42.672;23.296;2022-11-21T01:01:10;93353.91;;;12.65;83.03
35892;BME280;21993;42.672;23.296;2022-11-21T01:03:36;93354.81;;;12.72;82.07
35892;BME280;21993;42.672;23.296;2022-11-21T01:06:08;93361.53;;;12.75;82.56
35892;BME280;21993;42.672;23.296;2022-11-21T01:08:37;93335.00;;;12.76;82.28
35892;BME280;21993;42.672;23.296;2022-11-21T01:11:08;93342.47;;;12.73;82.40
35892;BME280;21993;42.672;23.296;2022-11-21T01:13:35;93333.38;;;12.75;81.74
35892;BME280;21993;42.672;23.296;2022-11-21T01:16:12;93348.13;;;12.70;81.82
35892;BME280;21993;42.672;23.296;2022-11-21T01:18:39;93353.63;;;12.60;81.94
35892;BME280;21993;42.672;23.296;2022-11-21T01:21:06;93340.13;;;12.63;82.84
35892;BME280;21993;42.672;23.296;2022-11-21T01:23:32;93349.56;;;12.57;82.80
35892;BME280;21993;42.672;23.296;2022-11-21T01:26:02;93363.91;;;12.55;82.97
35892;BME280;21993;42.672;23.296;2022-11-21T01:28:28;93349.56;;;12.57;83.05
35892;BME280;21993;42.672;23.296;2022-11-21T01:30:54;93373.78;;;12.67;82.69
35892;BME280;21993;42.672;23.296;2022-11-21T01:33:19;93353.81;;;12.58;83.14
35892;BME280;21993;42.672;23.296;2022-11-21T01:35:44;93358.19;;;12.66;82.84
35892;BME280;21993;42.672;23.296;2022-11-21T01:38:10;93356.91;;;12.62;81.82
35892;BME280;21993;42.672;23.296;2022-11-21T01:40:38;93338.59;;;12.54;82.35
35892;BME280;21993;42.672;23.296;2022-11-21T01:43:14;93300.91;;;12.53;82.35
35892;BME280;21993;42.672;23.296;2022-11-21T01:48:18;93335.75;;;12.40;82.31
35892;BME280;21993;42.672;23.296;2022-11-21T01:50:45;93319.16;;;12.40;82.51
35892;BME280;21993;42.672;23.296;2022-11-21T01:53:11;93336.94;;;12.53;82.20
35892;BME280;21993;42.672;23.296;2022-11-21T01:55:36;93342.84;;;12.55;82.42
35892;BME280;21993;42.672;23.296;2022-11-21T01:58:02;93313.25;;;12.53;81.99
35892;BME280;21993;42.672;23.296;2022-11-21T02:00:31;93321.03;;;12.61;82.40
35892;BME280;21993;42.672;23.296;2022-11-21T02:03:03;93325.03;;;12.57;82.15
35892;BME280;21993;42.672;23.296;2022-11-21T02:05:33;93334.03;;;12.62;81.94
35892;BME280;21993;42.672;23.296;2022-11-21T02:08:05;93344.28;;;12.57;82.22
35892;BME280;21993;42.672;23.296;2022-11-21T02:10:33;93350.66;;;12.63;81.86
35892;BME280;21993;42.672;23.296;2022-11-21T02:13:01;93332.00;;;12.35;82.72
35892;BME280;21993;42.672;23.296;2022-11-21T02:15:28;93335.47;;;12.35;82.98
35892;BME280;21993;42.672;23.296;2022-11-21T02:17:54;93325.13;;;12.34;82.47
35892;BME280;21993;42.672;23.296;2022-11-21T02:20:21;93319.34;;;12.53;81.77
35892;BME280;21993;42.672;23.296;2022-11-21T02:25:25;93321.31;;;12.51;82.17
35892;BME280;21993;42.672;23.296;2022-11-21T02:28:01;93346.91;;;12.57;81.84
35892;BME280;21993;42.672;23.296;2022-11-21T02:30:32;93337.31;;;12.64;81.44
35892;BME280;21993;42.672;23.296;2022-11-21T02:32:59;93321.22;;;12.59;81.93
35892;BME280;21993;42.672;23.296;2022-11-21T02:35:25;93322.94;;;12.52;81.96
35892;BME280;21993;42.672;23.296;2022-11-21T02:38:03;93315.31;;;12.43;81.79
35892;BME280;21993;42.672;23.296;2022-11-21T02:40:35;93307.81;;;12.39;82.04
35892;BME280;21993;42.672;23.296;2022-11-21T02:45:39;93323.03;;;12.44;82.64
35892;BME280;21993;42.672;23.296;2022-11-21T02:48:05;93321.69;;;12.48;82.43
35892;BME280;21993;42.672;23.296;2022-11-21T02:50:33;93306.63;;;12.57;82.18
35892;BME280;21993;42.672;23.296;2022-11-21T02:52:58;93295.09;;;12.58;82.52
35892;BME280;21993;42.672;23.296;2022-11-21T02:55:25;93301.06;;;12.66;82.66
35892;BME280;21993;42.672;23.296;2022-11-21T02:57:51;93288.91;;;12.65;82.30
35892;BME280;21993;42.672;23.296;2022-11-21T03:00:16;93276.03;;;12.41;79.95
35892;BME280;21993;42.672;23.296;2022-11-21T03:02:42;93248.53;;;12.58;79.42
35892;BME280;21993;42.672;23.296;2022-11-21T03:05:09;93268.22;;;12.62;80.90
35892;BME280;21993;42.672;23.296;2022-11-21T03:07:35;93236.47;;;12.49;81.27
35892;BME280;21993;42.672;23.296;2022-11-21T03:10:02;93281.59;;;12.46;80.94
35892;BME280;21993;42.672;23.296;2022-11-21T03:12:27;93258.84;;;12.60;79.56
35892;BME280;21993;42.672;23.296;2022-11-21T03:14:53;93265.88;;;12.53;79.55
35892;BME280;21993;42.672;23.296;2022-11-21T03:17:18;93276.41;;;12.53;79.23
35892;BME280;21993;42.672;23.296;2022-11-21T03:19:44;93272.94;;;12.52;79.28
35892;BME280;21993;42.672;23.296;2022-11-21T03:22:11;93264.59;;;12.63;78.91
35892;BME280;21993;42.672;23.296;2022-11-21T03:24:36;93268.72;;;12.87;79.00
35892;BME280;21993;42.672;23.296;2022-11-21T03:27:02;93279.00;;;12.82;79.22
35892;BME280;21993;42.672;23.296;2022-11-21T03:29:27;93292.06;;;12.90;78.63
35892;BME280;21993;42.672;23.296;2022-11-21T03:31:53;93274.25;;;12.78;79.37
35892;BME280;21993;42.672;23.296;2022-11-21T03:34:18;93278.81;;;12.84;78.77
35892;BME280;21993;42.672;23.296;2022-11-21T03:36:43;93285.16;;;12.89;78.53
35892;BME280;21993;42.672;23.296;2022-11-21T03:39:09;93272.38;;;12.86;78.42
35892;BME280;21993;42.672;23.296;2022-11-21T03:41:34;93264.84;;;12.68;77.46
35892;BME280;21993;42.672;23.296;2022-11-21T03:44:03;93270.19;;;12.75;77.40
35892;BME280;21993;42.672;23.296;2022-11-21T03:46:31;93283.78;;;12.93;78.07
35892;BME280;21993;42.672;23.296;2022-11-21T03:48:57;93281.22;;;13.00;77.76
35892;BME280;21993;42.672;23.296;2022-11-21T03:51:23;93221.03;;;12.97;77.01
35892;BME280;21993;42.672;23.296;2022-11-21T03:53:49;93272.00;;;12.75;74.59
35892;BME280;21993;42.672;23.296;2022-11-21T03:56:14;93243.03;;;12.75;74.96
35892;BME280;21993;42.672;23.296;2022-11-21T03:58:40;93256.78;;;12.70;75.90
35892;BME280;21993;42.672;23.296;2022-11-21T04:01:06;93256.38;;;12.88;75.81
35892;BME280;21993;42.672;23.296;2022-11-21T04:03:31;93258.09;;;12.95;75.42
35892;BME280;21993;42.672;23.296;2022-11-21T04:05:57;93244.66;;;12.90;74.19
35892;BME280;21993;42.672;23.296;2022-11-21T04:08:22;93246.47;;;12.90;74.59
35892;BME280;21993;42.672;23.296;2022-11-21T04:10:49;93241.34;;;13.03;75.10
35892;BME280;21993;42.672;23.296;2022-11-21T04:13:15;93236.38;;;12.93;75.74
35892;BME280;21993;42.672;23.296;2022-11-21T04:15:41;93237.94;;;12.88;75.78
35892;BME280;21993;42.672;23.296;2022-11-21T04:18:07;93235.63;;;13.00;73.76
35892;BME280;21993;42.672;23.296;2022-11-21T04:20:32;93205.06;;;12.84;72.65
35892;BME280;21993;42.672;23.296;2022-11-21T04:22:58;93222.84;;;12.96;70.52
35892;BME280;21993;42.672;23.296;2022-11-21T04:25:23;93233.75;;;13.15;68.42
35892;BME280;21993;42.672;23.296;2022-11-21T04:27:48;93215.59;;;13.20;68.28
35892;BME280;21993;42.672;23.296;2022-11-21T04:30:14;93221.94;;;13.26;69.03
35892;BME280;21993;42.672;23.296;2022-11-21T04:32:39;93244.56;;;13.20;70.10
35892;BME280;21993;42.672;23.296;2022-11-21T04:35:06;93234.97;;;13.34;68.79
35892;BME280;21993;42.672;23.296;2022-11-21T04:37:31;93241.53;;;13.38;70.67
35892;BME280;21993;42.672;23.296;2022-11-21T04:39:56;93244.28;;;13.30;70.87
35892;BME280;21993;42.672;23.296;2022-11-21T04:42:22;93233.97;;;13.35;69.12
35892;BME280;21993;42.672;23.296;2022-11-21T04:44:47;93221.88;;;13.40;69.66
35892;BME280;21993;42.672;23.296;2022-11-21T04:47:13;93233.09;;;13.49;67.33
35892;BME280;21993;42.672;23.296;2022-11-21T04:49:38;93249.19;;;13.54;67.11
35892;BME280;21993;42.672;23.296;2022-11-21T04:52:04;93252.50;;;13.63;65.34
35892;BME280;21993;42.672;23.296;2022-11-21T04:54:29;93246.03;;;13.65;67.38
35892;BME280;21993;42.672;23.296;2022-11-21T04:56:54;93259.41;;;13.64;67.72
35892;BME280;21993;42.672;23.296;2022-11-21T04:59:20;93250.56;;;13.78;67.24
35892;BME280;21993;42.672;23.296;2022-11-21T05:01:45;93250.09;;;13.68;69.12
35892;BME280;21993;42.672;23.296;2022-11-21T05:04:11;93264.84;;;13.41;72.18
35892;BME280;21993;42.672;23.296;2022-11-21T05:06:36;93292.47;;;13.66;72.15
35892;BME280;21993;42.672;23.296;2022-11-21T05:09:01;93276.00;;;13.86;72.02
35892;BME280;21993;42.672;23.296;2022-11-21T05:11:27;93292.50;;;13.94;71.67
35892;BME280;21993;42.672;23.296;2022-11-21T05:14:11;93265.03;;;13.82;71.66
35892;BME280;21993;42.672;23.296;2022-11-21T05:16:36;93306.47;;;13.67;71.53
35892;BME280;21993;42.672;23.296;2022-11-21T05:19:02;93304.78;;;13.59;71.80
35892;BME280;21993;42.672;23.296;2022-11-21T05:21:27;93323.63;;;13.56;71.90
35892;BME280;21993;42.672;23.296;2022-11-21T05:23:52;93310.25;;;13.58;71.65
35892;BME280;21993;42.672;23.296;2022-11-21T05:26:18;93317.28;;;13.72;71.09
35892;BME280;21993;42.672;23.296;2022-11-21T05:28:43;93316.44;;;13.50;70.80
35892;BME280;21993;42.672;23.296;2022-11-21T05:31:08;93362.28;;;13.49;70.92
35892;BME280;21993;42.672;23.296;2022-11-21T05:33:34;93339.69;;;13.40;70.08
35892;BME280;21993;42.672;23.296;2022-11-21T05:35:59;93318.56;;;13.04;69.53
35892;BME280;21993;42.672;23.296;2022-11-21T05:38:25;93321.44;;;13.09;69.52
35892;BME280;21993;42.672;23.296;2022-11-21T05:40:51;93334.19;;;13.05;70.21
35892;BME280;21993;42.672;23.296;2022-11-21T05:43:17;93358.31;;;13.09;69.14
35892;BME280;21993;42.672;23.296;2022-11-21T05:46:00;93346.63;;;12.52;70.09
35892;BME280;21993;42.672;23.296;2022-11-21T05:48:26;93365.16;;;12.59;70.21
35892;BME280;21993;42.672;23.296;2022-11-21T05:50:51;93348.00;;;12.78;69.74
35892;BME280;21993;42.672;23.296;2022-11-21T05:53:17;93379.88;;;12.53;69.83
35892;BME280;21993;42.672;23.296;2022-11-21T05:55:43;93379.81;;;12.61;69.46
35892;BME280;21993;42.672;23.296;2022-11-21T05:58:09;93389.13;;;12.49;69.03
35892;BME280;21993;42.672;23.296;2022-11-21T06:00:35;93396.16;;;12.34;68.73
35892;BME280;21993;42.672;23.296;2022-11-21T06:03:01;93370.03;;;12.32;68.44
35892;BME280;21993;42.672;23.296;2022-11-21T06:05:45;93398.16;;;11.94;68.86
35892;BME280;21993;42.672;23.296;2022-11-21T06:08:10;93429.28;;;11.82;69.22
35892;BME280;21993;42.672;23.296;2022-11-21T06:10:36;93415.41;;;11.97;68.73
35892;BME280;21993;42.672;23.296;2022-11-21T06:13:02;93423.53;;;11.87;68.43
35892;BME280;21993;42.672;23.296;2022-11-21T06:15:27;93406.94;;;11.87;68.75
35892;BME280;21993;42.672;23.296;2022-11-21T06:17:53;93435.88;;;11.78;68.44
35892;BME280;21993;42.672;23.296;2022-11-21T06:20:18;93460.09;;;11.66;68.19
35892;BME280;21993;42.672;23.296;2022-11-21T06:22:44;93447.69;;;11.51;68.35
35892;BME280;21993;42.672;23.296;2022-11-21T06:25:09;93452.00;;;11.44;69.00
35892;BME280;21993;42.672;23.296;2022-11-21T06:27:35;93448.63;;;11.27;69.00
35892;BME280;21993;42.672;23.296;2022-11-21T06:30:00;93458.97;;;11.29;69.05
35892;BME280;21993;42.672;23.296;2022-11-21T06:32:26;93462.69;;;11.35;68.32
35892;BME280;21993;42.672;23.296;2022-11-21T06:34:51;93484.31;;;11.14;69.38
35892;BME280;21993;42.672;23.296;2022-11-21T06:37:16;93479.03;;;11.14;68.97
35892;BME280;21993;42.672;23.296;2022-11-21T06:39:42;93482.97;;;11.10;69.33
35892;BME280;21993;42.672;23.296;2022-11-21T06:42:07;93468.88;;;11.11;69.42
35892;BME280;21993;42.672;23.296;2022-11-21T06:44:32;93476.44;;;11.06;70.69
35892;BME280;21993;42.672;23.296;2022-11-21T06:46:58;93479.75;;;10.91;70.89
35892;BME280;21993;42.672;23.296;2022-11-21T06:49:23;93506.03;;;10.75;71.77
35892;BME280;21993;42.672;23.296;2022-11-21T06:51:48;93528.38;;;10.71;72.30
35892;BME280;21993;42.672;23.296;2022-11-21T06:54:14;93527.03;;;10.59;72.98
35892;BME280;21993;42.672;23.296;2022-11-21T06:56:39;93548.84;;;10.59;72.80
35892;BME280;21993;42.672;23.296;2022-11-21T06:59:05;93539.22;;;10.43;72.45
35892;BME280;21993;42.672;23.296;2022-11-21T07:01:30;93548.06;;;10.34;73.03
35892;BME280;21993;42.672;23.296;2022-11-21T07:03:56;93564.53;;;10.10;73.40
35892;BME280;21993;42.672;23.296;2022-11-21T07:06:22;93569.81;;;10.19;73.93
35892;BME280;21993;42.672;23.296;2022-11-21T07:08:51;93570.78;;;10.09;73.87
35892;BME280;21993;42.672;23.296;2022-11-21T07:11:17;93599.56;;;9.93;74.39
35892;BME280;21993;42.672;23.296;2022-11-21T07:13:43;93577.22;;;9.73;75.01
35892;BME280;21993;42.672;23.296;2022-11-21T07:16:10;93600.94;;;9.71;75.82
35892;BME280;21993;42.672;23.296;2022-11-21T07:18:39;93618.75;;;9.59;76.57
35892;BME280;21993;42.672;23.296;2022-11-21T07:21:05;93614.38;;;9.68;76.33
35892;BME280;21993;42.672;23.296;2022-11-21T07:23:32;93625.63;;;9.61;76.77
35892;BME280;21993;42.672;23.296;2022-11-21T07:26:02;93632.06;;;9.74;76.77
35892;BME280;21993;42.672;23.296;2022-11-21T07:28:28;93631.69;;;9.61;76.61
35892;BME280;21993;42.672;23.296;2022-11-21T07:30:55;93646.94;;;9.66;76.25
35892;BME280;21993;42.672;23.296;2022-11-21T07:33:21;93646.81;;;9.67;75.64
35892;BME280;21993;42.672;23.296;2022-11-21T07:35:46;93668.66;;;9.58;76.25
35892;BME280;21993;42.672;23.296;2022-11-21T07:38:12;93681.78;;;9.58;76.10
35892;BME280;21993;42.672;23.296;2022-11-21T07:40:37;93682.50;;;9.68;75.93
35892;BME280;21993;42.672;23.296;2022-11-21T07:43:04;93688.72;;;9.67;75.57
35892;BME280;21993;42.672;23.296;2022-11-21T07:45:30;93676.25;;;9.61;76.33
35892;BME280;21993;42.672;23.296;2022-11-21T07:47:59;93676.56;;;9.66;75.78
35892;BME280;21993;42.672;23.296;2022-11-21T07:50:25;93681.94;;;9.56;75.80
35892;BME280;21993;42.672;23.296;2022-11-21T07:52:56;93686.50;;;9.28;75.85
35892;BME280;21993;42.672;23.296;2022-11-21T07:55:21;93688.31;;;9.28;76.36
35892;BME280;21993;42.672;23.296;2022-11-21T07:57:47;93688.00;;;9.31;76.43
35892;BME280;21993;42.672;23.296;2022-11-21T08:00:13;93707.78;;;9.08;76.61
35892;BME280;21993;42.672;23.296;2022-11-21T08:02:38;93705.81;;;9.27;75.88
35892;BME280;21993;42.672;23.296;2022-11-21T08:05:04;93720.66;;;9.19;75.04
35892;BME280;21993;42.672;23.296;2022-11-21T08:07:29;93718.31;;;9.34;76.52
35892;BME280;21993;42.672;23.296;2022-11-21T08:09:55;93718.59;;;9.30;76.32
35892;BME280;21993;42.672;23.296;2022-11-21T08:12:20;93717.72;;;9.22;76.35
35892;BME280;21993;42.672;23.296;2022-11-21T08:14:46;93730.34;;;9.26;76.36
35892;BME280;21993;42.672;23.296;2022-11-21T08:17:12;93733.03;;;9.35;76.20
35892;BME280;21993;42.672;23.296;2022-11-21T08:19:38;93728.78;;;9.34;76.32
35892;BME280;21993;42.672;23.296;2022-11-21T08:22:03;93742.97;;;9.31;75.47
35892;BME280;21993;42.672;23.296;2022-11-21T08:24:29;93737.16;;;9.19;74.60
35892;BME280;21993;42.672;23.296;2022-11-21T08:26:54;93746.50;;;9.22;76.35
35892;BME280;21993;42.672;23.296;2022-11-21T08:29:19;93750.41;;;9.18;75.27
35892;BME280;21993;42.672;23.296;2022-11-21T08:31:45;93749.44;;;9.19;76.32
35892;BME280;21993;42.672;23.296;2022-11-21T08:34:11;93743.59;;;9.07;76.27
35892;BME280;21993;42.672;23.296;2022-11-21T08:36:36;93755.34;;;9.21;76.33
35892;BME280;21993;42.672;23.296;2022-11-21T08:39:02;93754.84;;;9.17;75.54
35892;BME280;21993;42.672;23.296;2022-11-21T08:41:28;93750.19;;;9.11;75.34
35892;BME280;21993;42.672;23.296;2022-11-21T08:44:12;93751.69;;;9.14;74.96
35892;BME280;21993;42.672;23.296;2022-11-21T08:46:37;93751.31;;;9.09;74.22
35892;BME280;21993;42.672;23.296;2022-11-21T08:49:03;93753.69;;;9.20;75.43
35892;BME280;21993;42.672;23.296;2022-11-21T08:51:29;93742.09;;;9.22;75.81
35892;BME280;21993;42.672;23.296;2022-11-21T08:53:54;93752.56;;;9.22;75.14
35892;BME280;21993;42.672;23.296;2022-11-21T08:56:20;93749.06;;;9.14;75.03
35892;BME280;21993;42.672;23.296;2022-11-21T08:58:45;93757.13;;;9.20;75.69
35892;BME280;21993;42.672;23.296;2022-11-21T09:01:10;93752.28;;;9.25;75.80
35892;BME280;21993;42.672;23.296;2022-11-21T09:03:36;93752.28;;;9.25;75.94
35892;BME280;21993;42.672;23.296;2022-11-21T09:06:01;93764.59;;;9.33;75.36
35892;BME280;21993;42.672;23.296;2022-11-21T09:08:28;93762.75;;;9.25;75.03
35892;BME280;21993;42.672;23.296;2022-11-21T09:10:54;93770.16;;;9.12;74.61
35892;BME280;21993;42.672;23.296;2022-11-21T09:13:20;93770.91;;;9.05;74.59
35892;BME280;21993;42.672;23.296;2022-11-21T09:15:45;93771.88;;;9.21;74.78
35892;BME280;21993;42.672;23.296;2022-11-21T09:18:29;93774.97;;;9.17;74.97
35892;BME280;21993;42.672;23.296;2022-11-21T09:20:55;93781.84;;;9.18;75.85
35892;BME280;21993;42.672;23.296;2022-11-21T09:23:20;93778.91;;;9.03;75.84
35892;BME280;21993;42.672;23.296;2022-11-21T09:25:46;93784.56;;;8.81;75.48
35892;BME280;21993;42.672;23.296;2022-11-21T09:28:13;93769.84;;;8.80;77.09
35892;BME280;21993;42.672;23.296;2022-11-21T09:30:39;93787.75;;;9.02;75.78
35892;BME280;21993;42.672;23.296;2022-11-21T09:33:07;93775.00;;;9.07;76.44
35892;BME280;21993;42.672;23.296;2022-11-21T09:35:33;93777.84;;;9.14;76.44
35892;BME280;21993;42.672;23.296;2022-11-21T09:37:58;93779.81;;;9.12;77.45
35892;BME280;21993;42.672;23.296;2022-11-21T09:40:24;93795.28;;;9.05;76.93
35892;BME280;21993;42.672;23.296;2022-11-21T09:45:29;93778.97;;;8.76;76.00
35892;BME280;21993;42.672;23.296;2022-11-21T09:48:02;93775.41;;;8.94;75.74
35892;BME280;21993;42.672;23.296;2022-11-21T09:50:32;93780.03;;;9.00;76.14
35892;BME280;21993;42.672;23.296;2022-11-21T09:53:02;93784.88;;;8.78;75.58
35892;BME280;21993;42.672;23.296;2022-11-21T09:55:48;93789.13;;;8.79;75.65
35892;BME280;21993;42.672;23.296;2022-11-21T10:01:02;93790.53;;;8.73;76.33
35892;BME280;21993;42.672;23.296;2022-11-21T10:03:31;93788.75;;;8.73;76.22
35892;BME280;21993;42.672;23.296;2022-11-21T10:06:13;93804.16;;;8.77;76.71
35892;BME280;21993;42.672;23.296;2022-11-21T10:14:17;93808.03;;;8.72;75.70
35892;BME280;21993;42.672;23.296;2022-11-21T10:16:56;93801.47;;;8.68;77.02
35892;BME280;21993;42.672;23.296;2022-11-21T10:19:30;93808.81;;;8.55;76.93
35892;BME280;21993;42.672;23.296;2022-11-21T10:24:35;93814.69;;;8.67;77.07
35892;BME280;21993;42.672;23.296;2022-11-21T10:27:23;93817.22;;;8.59;76.36
35892;BME280;21993;42.672;23.296;2022-11-21T10:29:59;93819.09;;;8.66;76.39
35892;BME280;21993;42.672;23.296;2022-11-21T10:32:46;93813.53;;;8.52;77.56
35892;BME280;21993;42.672;23.296;2022-11-21T10:35:16;93813.91;;;8.57;76.66
35892;BME280;21993;42.672;23.296;2022-11-21T10:38:04;93807.31;;;8.53;76.96
35892;BME280;21993;42.672;23.296;2022-11-21T10:40:35;93822.81;;;8.64;77.62
35892;BME280;21993;42.672;23.296;2022-11-21T10:46:06;93831.22;;;8.67;78.10
35892;BME280;21993;42.672;23.296;2022-11-21T10:48:31;93836.97;;;8.71;77.11
35892;BME280;21993;42.672;23.296;2022-11-21T10:53:25;93821.72;;;8.66;75.82
35892;BME280;21993;42.672;23.296;2022-11-21T10:56:13;93826.06;;;8.76;76.72
35892;BME280;21993;42.672;23.296;2022-11-21T11:01:27;93838.34;;;8.65;76.60
35892;BME280;21993;42.672;23.296;2022-11-21T11:06:34;93844.66;;;8.72;77.25
35892;BME280;21993;42.672;23.296;2022-11-21T11:08:59;93843.41;;;8.77;77.17
35892;BME280;21993;42.672;23.296;2022-11-21T11:11:25;93844.09;;;8.79;76.72
35892;BME280;21993;42.672;23.296;2022-11-21T11:13:57;93845.06;;;8.78;77.20
35892;BME280;21993;42.672;23.296;2022-11-21T11:16:25;93836.91;;;8.81;77.01
35892;BME280;21993;42.672;23.296;2022-11-21T11:19:15;93832.22;;;8.84;77.31
35892;BME280;21993;42.672;23.296;2022-11-21T11:21:43;93825.47;;;8.82;78.55
35892;BME280;21993;42.672;23.296;2022-11-21T11:26:55;93822.84;;;8.82;78.27
35892;BME280;21993;42.672;23.296;2022-11-21T11:29:23;93823.81;;;8.81;77.30
35892;BME280;21993;42.672;23.296;2022-11-21T11:34:19;93827.97;;;8.83;76.52
35892;BME280;21993;42.672;23.296;2022-11-21T11:37:10;93811.94;;;8.86;76.74
35892;BME280;21993;42.672;23.296;2022-11-21T11:39:39;93812.09;;;8.85;77.15
35892;BME280;21993;42.672;23.296;2022-11-21T11:48:15;93813.75;;;8.86;76.09
35892;BME280;21993;42.672;23.296;2022-11-21T11:50:52;93825.75;;;8.79;76.51
35892;BME280;21993;42.672;23.296;2022-11-21T11:53:28;93823.56;;;8.74;75.63
35892;BME280;21993;42.672;23.296;2022-11-21T11:56:03;93811.81;;;8.60;75.45
35892;BME280;21993;42.672;23.296;2022-11-21T11:58:40;93815.50;;;8.67;75.67
35892;BME280;21993;42.672;23.296;2022-11-21T12:01:12;93814.78;;;8.75;75.13
35892;BME280;21993;42.672;23.296;2022-11-21T12:03:53;93811.94;;;8.86;74.89
35892;BME280;21993;42.672;23.296;2022-11-21T12:06:24;93813.06;;;8.84;74.80
35892;BME280;21993;42.672;23.296;2022-11-21T12:08:57;93815.78;;;8.92;75.71
35892;BME280;21993;42.672;23.296;2022-11-21T12:11:50;93818.41;;;8.92;75.53
35892;BME280;21993;42.672;23.296;2022-11-21T12:14:42;93830.28;;;8.86;75.19
35892;BME280;21993;42.672;23.296;2022-11-21T12:20:10;93827.81;;;8.85;73.82
35892;BME280;21993;42.672;23.296;2022-11-21T12:22:37;93827.53;;;8.60;74.79
35892;BME280;21993;42.672;23.296;2022-11-21T12:25:02;93835.56;;;8.77;74.57
35892;BME280;21993;42.672;23.296;2022-11-21T12:27:30;93826.69;;;8.87;74.67
35892;BME280;21993;42.672;23.296;2022-11-21T12:32:53;93832.50;;;8.81;74.21
35892;BME280;21993;42.672;23.296;2022-11-21T12:50:43;93845.66;;;8.89;73.71
35892;BME280;21993;42.672;23.296;2022-11-21T12:56:29;93842.63;;;8.94;73.27
35892;BME280;21993;42.672;23.296;2022-11-21T12:58:57;93840.81;;;8.94;73.92
35892;BME280;21993;42.672;23.296;2022-11-21T13:01:39;93841.81;;;8.93;72.80
35892;BME280;21993;42.672;23.296;2022-11-21T13:04:17;93848.22;;;8.99;73.17
35892;BME280;21993;42.672;23.296;2022-11-21T13:06:46;93852.63;;;8.98;73.92
35892;BME280;21993;42.672;23.296;2022-11-21T13:09:18;93847.28;;;9.00;73.72
35892;BME280;21993;42.672;23.296;2022-11-21T13:12:02;93849.91;;;9.00;73.43
35892;BME280;21993;42.672;23.296;2022-11-21T13:19:36;93868.50;;;8.97;73.06
35892;BME280;21993;42.672;23.296;2022-11-21T13:23:10;93869.13;;;8.81;71.70
35892;BME280;21993;42.672;23.296;2022-11-21T13:30:48;93873.06;;;8.95;70.50
35892;BME280;21993;42.672;23.296;2022-11-21T13:35:59;93880.97;;;8.85;70.83
35892;BME280;21993;42.672;23.296;2022-11-21T13:38:24;93873.13;;;8.85;71.80
35892;BME280;21993;42.672;23.296;2022-11-21T13:40:50;93866.59;;;8.89;72.00
35892;BME280;21993;42.672;23.296;2022-11-21T13:43:34;93866.09;;;8.86;71.65
35892;BME280;21993;42.672;23.296;2022-11-21T13:46:00;93874.19;;;8.92;70.95
35892;BME280;21993;42.672;23.296;2022-11-21T13:48:56;93874.84;;;8.94;72.30
35892;BME280;21993;42.672;23.296;2022-11-21T13:51:51;93873.22;;;8.93;71.77
35892;BME280;21993;42.672;23.296;2022-11-21T14:08:25;93865.22;;;8.67;71.78
35892;BME280;21993;42.672;23.296;2022-11-21T14:10:52;93857.94;;;8.61;70.85
35892;BME280;21993;42.672;23.296;2022-11-21T14:13:30;93851.44;;;8.65;71.09
35892;BME280;21993;42.672;23.296;2022-11-21T14:16:12;93852.50;;;8.72;71.61
35892;BME280;21993;42.672;23.296;2022-11-21T14:18:42;93853.47;;;8.71;72.61
35892;BME280;21993;42.672;23.296;2022-11-21T14:21:23;93861.88;;;8.75;72.65
35892;BME280;21993;42.672;23.296;2022-11-21T14:23:53;93862.69;;;8.76;70.71
35892;BME280;21993;42.672;23.296;2022-11-21T14:26:20;93864.50;;;8.75;71.03
35892;BME280;21993;42.672;23.296;2022-11-21T14:28:47;93870.00;;;8.72;72.10
35892;BME280;21993;42.672;23.296;2022-11-21T14:31:13;93863.16;;;8.61;71.93
35892;BME280;21993;42.672;23.296;2022-11-21T14:33:40;93861.22;;;8.63;71.68
35892;BME280;21993;42.672;23.296;2022-11-21T14:36:17;93869.22;;;8.62;72.12